sensor_id;sensor_type;location;lat;lon;timestamp;pressure;altitude;pressure_sealevel;temperature;humidity
40502;BME280;29631;49.168;9.848;2022-10-28T00:02:24;97404.19;;;21.37;85.35
40502;BME280;29631;49.168;9.848;2022-10-28T00:04:50;97408.44;;;21.33;85.30
40502;BME280;29631;49.168;9.848;2022-10-28T00:07:16;97414.91;;;21.37;85.34
40502;BME280;29631;49.168;9.848;2022-10-28T00:09:41;97413.28;;;21.36;85.49
40502;BME280;29631;49.168;9.848;2022-10-28T00:12:07;97406.00;;;21.31;85.47
40502;BME280;29631;49.168;9.848;2022-10-28T00:14:33;97419.47;;;21.36;85.68
40502;BME280;29631;49.168;9.848;2022-10-28T00:16:58;97411.66;;;21.35;85.54
40502;BME280;29631;49.168;9.848;2022-10-28T00:19:25;97414.41;;;21.40;85.89
40502;BME280;29631;49.168;9.848;2022-10-28T00:21:50;97405.28;;;21.41;85.72
40502;BME280;29631;49.168;9.848;2022-10-28T00:24:16;97412.56;;;21.45;85.92
40502;BME280;29631;49.168;9.848;2022-10-28T00:26:42;97406.72;;;21.48;85.70
40502;BME280;29631;49.168;9.848;2022-10-28T00:29:16;97403.47;;;21.46;85.97
40502;BME280;29631;49.168;9.848;2022-10-28T00:31:43;97409.94;;;21.50;86.44
40502;BME280;29631;49.168;9.848;2022-10-28T00:34:13;97395.94;;;21.43;86.16
40502;BME280;29631;49.168;9.848;2022-10-28T00:36:42;97394.34;;;21.47;86.25
40502;BME280;29631;49.168;9.848;2022-10-28T00:39:26;97387.59;;;21.40;85.94
40502;BME280;29631;49.168;9.848;2022-10-28T00:41:56;97402.13;;;21.49;86.20
40502;BME280;29631;49.168;9.848;2022-10-28T00:44:59;97405.88;;;21.48;86.20
40502;BME280;29631;49.168;9.848;2022-10-28T00:47:56;97393.53;;;21.47;86.33
40502;BME280;29631;49.168;9.848;2022-10-28T00:50:46;97389.44;;;21.39;86.39
40502;BME280;29631;49.168;9.848;2022-10-28T00:53:21;97395.94;;;21.43;85.91
40502;BME280;29631;49.168;9.848;2022-10-28T00:55:48;97377.34;;;21.37;86.00
40502;BME280;29631;49.168;9.848;2022-10-28T00:58:17;97395.06;;;21.38;86.10
40502;BME280;29631;49.168;9.848;2022-10-28T01:00:44;97393.44;;;21.37;86.25
40502;BME280;29631;49.168;9.848;2022-10-28T01:03:11;97396.38;;;21.35;86.58
40502;BME280;29631;49.168;9.848;2022-10-28T01:05:41;97396.69;;;21.39;86.47
40502;BME280;29631;49.168;9.848;2022-10-28T01:08:07;97389.69;;;21.38;86.06
40502;BME280;29631;49.168;9.848;2022-10-28T01:30:26;97389.66;;;21.07;86.66
40502;BME280;29631;49.168;9.848;2022-10-28T01:33:09;97383.22;;;21.08;86.51
40502;BME280;29631;49.168;9.848;2022-10-28T01:35:49;97381.38;;;21.08;86.64
40502;BME280;29631;49.168;9.848;2022-10-28T01:38:47;97382.13;;;21.04;86.41
40502;BME280;29631;49.168;9.848;2022-10-28T01:44:08;97372.13;;;20.99;86.33
40502;BME280;29631;49.168;9.848;2022-10-28T01:47:11;97386.16;;;21.06;86.69
40502;BME280;29631;49.168;9.848;2022-10-28T01:52:27;97382.44;;;21.07;86.24
40502;BME280;29631;49.168;9.848;2022-10-28T01:55:07;97378.88;;;21.02;86.44
40502;BME280;29631;49.168;9.848;2022-10-28T01:57:36;97375.44;;;21.06;86.57
40502;BME280;29631;49.168;9.848;2022-10-28T02:00:05;97377.56;;;21.04;86.33
40502;BME280;29631;49.168;9.848;2022-10-28T02:02:34;97383.75;;;21.05;86.52
40502;BME280;29631;49.168;9.848;2022-10-28T02:19:13;97386.03;;;20.96;86.83
40502;BME280;29631;49.168;9.848;2022-10-28T02:21:51;97384.44;;;20.95;86.70
40502;BME280;29631;49.168;9.848;2022-10-28T02:27:43;97369.84;;;20.86;87.37
40502;BME280;29631;49.168;9.848;2022-10-28T02:30:24;97366.91;;;20.88;86.55
40502;BME280;29631;49.168;9.848;2022-10-28T02:32:58;97373.91;;;20.89;86.78
40502;BME280;29631;49.168;9.848;2022-10-28T02:36:06;97368.78;;;20.87;86.79
40502;BME280;29631;49.168;9.848;2022-10-28T02:38:51;97369.84;;;20.86;86.86
40502;BME280;29631;49.168;9.848;2022-10-28T02:41:50;97370.91;;;20.85;87.29
40502;BME280;29631;49.168;9.848;2022-10-28T02:44:25;97365.50;;;20.80;87.04
40502;BME280;29631;49.168;9.848;2022-10-28T02:46:55;97376.22;;;20.80;87.01
40502;BME280;29631;49.168;9.848;2022-10-28T02:49:24;97370.84;;;20.80;86.96
40502;BME280;29631;49.168;9.848;2022-10-28T02:51:57;97361.69;;;20.76;86.95
40502;BME280;29631;49.168;9.848;2022-10-28T02:54:46;97355.25;;;20.77;86.83
40502;BME280;29631;49.168;9.848;2022-10-28T02:57:17;97352.09;;;20.80;86.77
40502;BME280;29631;49.168;9.848;2022-10-28T02:59:55;97353.63;;;20.76;86.82
40502;BME280;29631;49.168;9.848;2022-10-28T03:02:22;97349.78;;;20.67;87.12
40502;BME280;29631;49.168;9.848;2022-10-28T03:04:48;97346.53;;;20.65;87.48
40502;BME280;29631;49.168;9.848;2022-10-28T03:07:14;97354.31;;;20.67;87.19
40502;BME280;29631;49.168;9.848;2022-10-28T03:09:40;97368.59;;;20.72;87.16
40502;BME280;29631;49.168;9.848;2022-10-28T03:12:05;97358.88;;;20.66;86.96
40502;BME280;29631;49.168;9.848;2022-10-28T03:14:31;97317.75;;;20.35;87.06
40502;BME280;29631;49.168;9.848;2022-10-28T03:16:57;97356.38;;;20.60;87.09
40502;BME280;29631;49.168;9.848;2022-10-28T03:19:22;97355.50;;;20.54;87.35
40502;BME280;29631;49.168;9.848;2022-10-28T03:21:49;97363.59;;;20.59;87.08
40502;BME280;29631;49.168;9.848;2022-10-28T03:24:15;97360.34;;;20.57;87.52
40502;BME280;29631;49.168;9.848;2022-10-28T03:26:40;97377.56;;;20.61;87.04
40502;BME280;29631;49.168;9.848;2022-10-28T03:29:06;97362.22;;;20.57;87.07
40502;BME280;29631;49.168;9.848;2022-10-28T03:31:32;97370.28;;;20.57;87.19
40502;BME280;29631;49.168;9.848;2022-10-28T03:33:57;97367.84;;;20.55;87.04
40502;BME280;29631;49.168;9.848;2022-10-28T03:36:23;97352.19;;;20.47;87.33
40502;BME280;29631;49.168;9.848;2022-10-28T03:38:49;97345.28;;;20.51;87.32
40502;BME280;29631;49.168;9.848;2022-10-28T03:41:15;97351.47;;;20.52;87.20
40502;BME280;29631;49.168;9.848;2022-10-28T03:43:40;97354.69;;;20.54;87.13
40502;BME280;29631;49.168;9.848;2022-10-28T03:46:06;97342.06;;;20.49;87.38
40502;BME280;29631;49.168;9.848;2022-10-28T03:48:32;97345.78;;;20.48;87.06
40502;BME280;29631;49.168;9.848;2022-10-28T03:50:58;97336.06;;;20.42;87.18
40502;BME280;29631;49.168;9.848;2022-10-28T03:53:24;97346.91;;;20.52;87.31
40502;BME280;29631;49.168;9.848;2022-10-28T03:55:54;97346.84;;;20.47;87.56
40502;BME280;29631;49.168;9.848;2022-10-28T03:58:21;97351.47;;;20.52;87.34
40502;BME280;29631;49.168;9.848;2022-10-28T04:00:49;97347.97;;;20.51;87.90
40502;BME280;29631;49.168;9.848;2022-10-28T04:03:16;97345.28;;;20.51;87.56
40502;BME280;29631;49.168;9.848;2022-10-28T04:05:42;97330.72;;;20.42;87.57
40502;BME280;29631;49.168;9.848;2022-10-28T04:08:09;97339.88;;;20.46;87.92
40502;BME280;29631;49.168;9.848;2022-10-28T04:10:35;97338.75;;;20.42;87.68
40502;BME280;29631;49.168;9.848;2022-10-28T04:13:03;97347.91;;;20.46;87.79
40502;BME280;29631;49.168;9.848;2022-10-28T04:15:28;97322.91;;;20.41;87.88
40502;BME280;29631;49.168;9.848;2022-10-28T04:17:54;97326.47;;;20.46;88.04
40502;BME280;29631;49.168;9.848;2022-10-28T04:20:20;97339.91;;;20.51;87.86
40502;BME280;29631;49.168;9.848;2022-10-28T04:22:46;97336.63;;;20.44;87.79
40502;BME280;29631;49.168;9.848;2022-10-28T04:25:12;97315.81;;;20.30;87.85
40502;BME280;29631;49.168;9.848;2022-10-28T04:27:37;97335.94;;;20.33;88.06
40502;BME280;29631;49.168;9.848;2022-10-28T04:30:04;97353.78;;;20.43;87.86
40502;BME280;29631;49.168;9.848;2022-10-28T04:32:30;97357.88;;;20.51;88.17
40502;BME280;29631;49.168;9.848;2022-10-28T04:34:56;97359.72;;;20.50;88.15
40502;BME280;29631;49.168;9.848;2022-10-28T04:37:22;97340.91;;;20.45;88.14
40502;BME280;29631;49.168;9.848;2022-10-28T04:39:48;97352.53;;;20.51;88.18
40502;BME280;29631;49.168;9.848;2022-10-28T04:42:13;97351.78;;;20.55;88.31
40502;BME280;29631;49.168;9.848;2022-10-28T04:44:39;97359.59;;;20.62;88.57
40502;BME280;29631;49.168;9.848;2022-10-28T04:47:05;97342.09;;;20.54;88.32
40502;BME280;29631;49.168;9.848;2022-10-28T04:49:31;97329.19;;;20.51;88.33
40502;BME280;29631;49.168;9.848;2022-10-28T04:51:56;97324.91;;;20.50;88.22
40502;BME280;29631;49.168;9.848;2022-10-28T04:54:22;97340.59;;;20.63;88.42
40502;BME280;29631;49.168;9.848;2022-10-28T04:56:48;97353.69;;;20.60;88.52
40502;BME280;29631;49.168;9.848;2022-10-28T04:59:14;97330.34;;;20.55;88.30
40502;BME280;29631;49.168;9.848;2022-10-28T05:01:40;97321.09;;;20.46;88.40
40502;BME280;29631;49.168;9.848;2022-10-28T05:04:06;97346.94;;;20.57;88.32
40502;BME280;29631;49.168;9.848;2022-10-28T05:06:31;97324.84;;;20.45;88.63
40502;BME280;29631;49.168;9.848;2022-10-28T05:08:57;97331.88;;;20.51;88.36
40502;BME280;29631;49.168;9.848;2022-10-28T05:11:23;97322.72;;;20.47;88.54
40502;BME280;29631;49.168;9.848;2022-10-28T05:13:49;97327.03;;;20.48;88.19
40502;BME280;29631;49.168;9.848;2022-10-28T05:16:17;97332.44;;;20.53;88.53
40502;BME280;29631;49.168;9.848;2022-10-28T05:18:43;97313.00;;;20.42;88.51
40502;BME280;29631;49.168;9.848;2022-10-28T05:21:09;97308.66;;;20.36;88.30
40502;BME280;29631;49.168;9.848;2022-10-28T05:23:35;97320.78;;;20.43;88.84
40502;BME280;29631;49.168;9.848;2022-10-28T05:26:00;97310.28;;;20.37;88.85
40502;BME280;29631;49.168;9.848;2022-10-28T05:28:26;97317.75;;;20.35;88.96
40502;BME280;29631;49.168;9.848;2022-10-28T05:30:52;97315.94;;;20.40;88.72
40502;BME280;29631;49.168;9.848;2022-10-28T05:33:18;97321.63;;;20.43;88.75
40502;BME280;29631;49.168;9.848;2022-10-28T05:35:43;97305.72;;;20.37;88.55
40502;BME280;29631;49.168;9.848;2022-10-28T05:38:09;97301.94;;;20.33;88.31
40502;BME280;29631;49.168;9.848;2022-10-28T05:40:35;97304.84;;;20.32;88.54
40502;BME280;29631;49.168;9.848;2022-10-28T05:43:01;97309.16;;;20.33;88.61
40502;BME280;29631;49.168;9.848;2022-10-28T05:45:28;97323.16;;;20.40;89.06
40502;BME280;29631;49.168;9.848;2022-10-28T05:47:53;97323.09;;;20.35;88.96
40502;BME280;29631;49.168;9.848;2022-10-28T05:50:20;97306.25;;;20.34;88.45
40502;BME280;29631;49.168;9.848;2022-10-28T05:52:52;97315.94;;;20.40;88.78
40502;BME280;29631;49.168;9.848;2022-10-28T05:55:20;97331.81;;;20.46;88.82
40502;BME280;29631;49.168;9.848;2022-10-28T05:57:47;97330.78;;;20.47;89.11
40502;BME280;29631;49.168;9.848;2022-10-28T06:00:15;97324.22;;;20.39;89.16
40502;BME280;29631;49.168;9.848;2022-10-28T06:02:41;97307.59;;;20.37;88.85
40502;BME280;29631;49.168;9.848;2022-10-28T06:05:09;97323.69;;;20.37;89.06
40502;BME280;29631;49.168;9.848;2022-10-28T06:07:35;97298.31;;;20.23;88.78
40502;BME280;29631;49.168;9.848;2022-10-28T06:10:03;97328.53;;;20.40;88.85
40502;BME280;29631;49.168;9.848;2022-10-28T06:12:30;97336.06;;;20.42;88.93
40502;BME280;29631;49.168;9.848;2022-10-28T06:14:55;97332.25;;;20.39;89.09
40502;BME280;29631;49.168;9.848;2022-10-28T06:17:21;97326.09;;;20.38;88.75
40502;BME280;29631;49.168;9.848;2022-10-28T06:19:47;97319.91;;;20.38;88.75
40502;BME280;29631;49.168;9.848;2022-10-28T06:22:13;97318.22;;;20.32;88.68
40502;BME280;29631;49.168;9.848;2022-10-28T06:24:38;97323.59;;;20.32;89.00
40502;BME280;29631;49.168;9.848;2022-10-28T06:27:04;97316.00;;;20.24;89.24
40502;BME280;29631;49.168;9.848;2022-10-28T06:29:30;97307.41;;;20.22;89.06
40502;BME280;29631;49.168;9.848;2022-10-28T06:31:58;97317.44;;;20.31;88.65
40502;BME280;29631;49.168;9.848;2022-10-28T06:34:24;97257.72;;;19.93;88.65
40502;BME280;29631;49.168;9.848;2022-10-28T06:36:50;97323.59;;;20.32;88.68
40502;BME280;29631;49.168;9.848;2022-10-28T06:39:15;97329.47;;;20.29;88.63
40502;BME280;29631;49.168;9.848;2022-10-28T06:41:42;97333.25;;;20.33;89.17
40502;BME280;29631;49.168;9.848;2022-10-28T06:44:08;97322.97;;;20.25;89.07
40502;BME280;29631;49.168;9.848;2022-10-28T06:46:34;97341.22;;;20.28;89.36
40502;BME280;29631;49.168;9.848;2022-10-28T06:49:00;97329.63;;;20.22;89.33
40502;BME280;29631;49.168;9.848;2022-10-28T06:51:30;97343.91;;;20.28;89.19
40502;BME280;29631;49.168;9.848;2022-10-28T06:53:56;97340.97;;;20.29;89.31
40502;BME280;29631;49.168;9.848;2022-10-28T06:56:23;97355.75;;;20.32;89.79
40502;BME280;29631;49.168;9.848;2022-10-28T06:58:53;97371.31;;;20.35;89.40
40502;BME280;29631;49.168;9.848;2022-10-28T07:01:19;97376.69;;;20.35;89.39
40502;BME280;29631;49.168;9.848;2022-10-28T07:03:46;97358.97;;;20.34;89.90
40502;BME280;29631;49.168;9.848;2022-10-28T07:06:13;97363.34;;;20.40;89.97
40502;BME280;29631;49.168;9.848;2022-10-28T07:08:38;97356.06;;;20.35;89.49
40502;BME280;29631;49.168;9.848;2022-10-28T07:11:04;97352.84;;;20.33;89.31
40502;BME280;29631;49.168;9.848;2022-10-28T07:13:30;97367.09;;;20.39;89.64
40502;BME280;29631;49.168;9.848;2022-10-28T07:15:58;97378.44;;;20.45;89.65
40502;BME280;29631;49.168;9.848;2022-10-28T07:18:26;97357.72;;;20.41;90.15
40502;BME280;29631;49.168;9.848;2022-10-28T07:20:52;97358.31;;;20.43;89.78
40502;BME280;29631;49.168;9.848;2022-10-28T07:23:18;97359.34;;;20.42;89.98
40502;BME280;29631;49.168;9.848;2022-10-28T07:25:52;97350.53;;;20.42;89.78
40502;BME280;29631;49.168;9.848;2022-10-28T07:28:18;97353.78;;;20.43;90.02
40502;BME280;29631;49.168;9.848;2022-10-28T07:30:44;97368.38;;;20.57;90.16
40502;BME280;29631;49.168;9.848;2022-10-28T07:33:10;97373.84;;;20.62;90.05
40502;BME280;29631;49.168;9.848;2022-10-28T07:35:36;97369.28;;;20.63;89.95
40502;BME280;29631;49.168;9.848;2022-10-28T07:38:01;97371.22;;;20.67;90.44
40502;BME280;29631;49.168;9.848;2022-10-28T07:40:27;97355.06;;;20.62;90.65
40502;BME280;29631;49.168;9.848;2022-10-28T07:42:53;97347.22;;;20.56;90.74
40502;BME280;29631;49.168;9.848;2022-10-28T07:45:19;97364.72;;;20.63;90.86
40502;BME280;29631;49.168;9.848;2022-10-28T07:47:45;97362.59;;;20.65;90.60
40502;BME280;29631;49.168;9.848;2022-10-28T07:50:11;97354.50;;;20.60;90.74
40502;BME280;29631;49.168;9.848;2022-10-28T07:52:37;97343.78;;;20.60;90.79
40502;BME280;29631;49.168;9.848;2022-10-28T07:55:04;97349.81;;;20.72;90.43
40502;BME280;29631;49.168;9.848;2022-10-28T07:57:33;97342.34;;;20.74;91.00
40502;BME280;29631;49.168;9.848;2022-10-28T07:59:59;97369.84;;;20.86;91.10
40502;BME280;29631;49.168;9.848;2022-10-28T08:02:25;97356.41;;;20.81;91.19
40502;BME280;29631;49.168;9.848;2022-10-28T08:04:51;97349.97;;;20.82;91.08
40502;BME280;29631;49.168;9.848;2022-10-28T08:07:18;97360.31;;;20.95;91.05
40502;BME280;29631;49.168;9.848;2022-10-28T08:09:44;97338.47;;;20.87;90.99
40502;BME280;29631;49.168;9.848;2022-10-28T08:12:14;97331.31;;;20.92;91.84
40502;BME280;29631;49.168;9.848;2022-10-28T08:14:40;97345.38;;;21.04;91.63
40502;BME280;29631;49.168;9.848;2022-10-28T08:17:07;97348.16;;;21.14;91.62
40502;BME280;29631;49.168;9.848;2022-10-28T08:19:33;97305.84;;;20.95;91.25
40502;BME280;29631;49.168;9.848;2022-10-28T08:21:59;97344.53;;;21.30;91.61
40502;BME280;29631;49.168;9.848;2022-10-28T08:24:24;97336.00;;;21.33;91.26
40502;BME280;29631;49.168;9.848;2022-10-28T08:26:50;97350.25;;;21.38;91.41
40502;BME280;29631;49.168;9.848;2022-10-28T08:29:16;97344.13;;;21.43;91.67
40502;BME280;29631;49.168;9.848;2022-10-28T08:31:42;97318.19;;;21.22;91.58
40502;BME280;29631;49.168;9.848;2022-10-28T08:34:08;97339.84;;;21.47;91.65
40502;BME280;29631;49.168;9.848;2022-10-28T08:36:34;97353.97;;;21.59;92.11
40502;BME280;29631;49.168;9.848;2022-10-28T08:39:00;97349.69;;;21.63;91.98
40502;BME280;29631;49.168;9.848;2022-10-28T08:49:50;97373.31;;;22.02;91.41
40502;BME280;29631;49.168;9.848;2022-10-28T08:52:33;97382.25;;;22.12;91.60
40502;BME280;29631;49.168;9.848;2022-10-28T08:55:19;97393.31;;;22.21;91.75
40502;BME280;29631;49.168;9.848;2022-10-28T08:57:53;97393.88;;;22.23;91.52
40502;BME280;29631;49.168;9.848;2022-10-28T09:00:27;97396.56;;;22.23;91.41
40502;BME280;29631;49.168;9.848;2022-10-28T09:05:43;97413.59;;;22.33;91.42
40502;BME280;29631;49.168;9.848;2022-10-28T09:08:24;97405.81;;;22.32;91.74
40502;BME280;29631;49.168;9.848;2022-10-28T09:17:09;97401.63;;;22.51;92.10
40502;BME280;29631;49.168;9.848;2022-10-28T09:19:48;97391.97;;;22.60;92.34
40502;BME280;29631;49.168;9.848;2022-10-28T09:22:40;97374.53;;;22.62;92.80
40502;BME280;29631;49.168;9.848;2022-10-28T09:31:43;97360.75;;;23.20;91.06
40502;BME280;29631;49.168;9.848;2022-10-28T09:34:29;97372.59;;;23.43;91.08
40502;BME280;29631;49.168;9.848;2022-10-28T09:37:11;97374.22;;;23.49;90.68
40502;BME280;29631;49.168;9.848;2022-10-28T09:39:48;97380.94;;;23.57;91.27
40502;BME280;29631;49.168;9.848;2022-10-28T09:42:30;97376.94;;;23.64;91.50
40502;BME280;29631;49.168;9.848;2022-10-28T09:45:20;97389.06;;;23.72;91.68
40502;BME280;29631;49.168;9.848;2022-10-28T09:50:53;97384.19;;;24.23;90.23
40502;BME280;29631;49.168;9.848;2022-10-28T09:53:51;97388.75;;;24.33;89.43
40502;BME280;29631;49.168;9.848;2022-10-28T09:56:20;97371.50;;;24.34;90.25
40502;BME280;29631;49.168;9.848;2022-10-28T09:58:46;97380.66;;;24.33;89.93
40502;BME280;29631;49.168;9.848;2022-10-28T10:01:14;97393.06;;;24.54;88.99
40502;BME280;29631;49.168;9.848;2022-10-28T10:03:41;97375.59;;;24.94;89.21
40502;BME280;29631;49.168;9.848;2022-10-28T10:06:32;97359.66;;;25.46;87.79
40502;BME280;29631;49.168;9.848;2022-10-28T10:08:59;97352.56;;;25.93;86.29
40502;BME280;29631;49.168;9.848;2022-10-28T10:11:40;97332.63;;;26.13;85.41
40502;BME280;29631;49.168;9.848;2022-10-28T10:14:16;97329.97;;;26.08;85.21
40502;BME280;29631;49.168;9.848;2022-10-28T10:16:54;97320.50;;;25.82;85.79
40502;BME280;29631;49.168;9.848;2022-10-28T10:19:21;97333.06;;;25.63;86.40
40502;BME280;29631;49.168;9.848;2022-10-28T10:21:49;97352.13;;;25.43;86.52
40502;BME280;29631;49.168;9.848;2022-10-28T10:24:23;97314.50;;;25.18;86.43
40502;BME280;29631;49.168;9.848;2022-10-28T10:26:51;97317.84;;;25.00;86.89
40502;BME280;29631;49.168;9.848;2022-10-28T10:29:17;97335.34;;;24.98;86.90
40502;BME280;29631;49.168;9.848;2022-10-28T10:31:44;97343.19;;;24.99;87.04
40502;BME280;29631;49.168;9.848;2022-10-28T10:34:24;97335.69;;;24.91;87.04
40502;BME280;29631;49.168;9.848;2022-10-28T10:36:54;97331.59;;;24.99;87.51
40502;BME280;29631;49.168;9.848;2022-10-28T10:39:28;97316.75;;;24.96;87.19
40502;BME280;29631;49.168;9.848;2022-10-28T10:41:56;97315.19;;;24.90;87.31
40502;BME280;29631;49.168;9.848;2022-10-28T10:49:15;97326.44;;;25.02;87.30
40502;BME280;29631;49.168;9.848;2022-10-28T10:51:51;97326.97;;;25.09;87.13
40502;BME280;29631;49.168;9.848;2022-10-28T10:54:17;97284.44;;;24.87;87.42
40502;BME280;29631;49.168;9.848;2022-10-28T10:56:43;97360.84;;;25.30;86.81
40502;BME280;29631;49.168;9.848;2022-10-28T10:59:35;97357.06;;;25.31;86.52
40502;BME280;29631;49.168;9.848;2022-10-28T11:02:23;97381.84;;;25.43;86.26
40502;BME280;29631;49.168;9.848;2022-10-28T11:04:52;97391.28;;;25.46;86.69
40502;BME280;29631;49.168;9.848;2022-10-28T11:07:19;97400.41;;;25.50;86.87
40502;BME280;29631;49.168;9.848;2022-10-28T11:09:49;97397.94;;;25.58;87.43
40502;BME280;29631;49.168;9.848;2022-10-28T11:12:32;97386.56;;;25.61;87.64
40502;BME280;29631;49.168;9.848;2022-10-28T11:17:33;97356.25;;;25.69;87.58
40502;BME280;29631;49.168;9.848;2022-10-28T11:20:27;97354.19;;;25.89;88.17
40502;BME280;29631;49.168;9.848;2022-10-28T11:25:43;97319.81;;;25.95;87.56
40502;BME280;29631;49.168;9.848;2022-10-28T11:43:52;97274.19;;;26.17;87.11
40502;BME280;29631;49.168;9.848;2022-10-28T11:46:36;97284.88;;;26.27;87.28
40502;BME280;29631;49.168;9.848;2022-10-28T11:49:37;97269.44;;;26.27;86.67
40502;BME280;29631;49.168;9.848;2022-10-28T11:53:09;97271.56;;;26.30;86.58
40502;BME280;29631;49.168;9.848;2022-10-28T11:58:49;97283.47;;;26.29;85.18
40502;BME280;29631;49.168;9.848;2022-10-28T12:04:28;97278.88;;;26.30;85.84
40502;BME280;29631;49.168;9.848;2022-10-28T12:13:00;97273.13;;;26.59;85.50
40502;BME280;29631;49.168;9.848;2022-10-28T12:19:01;97286.09;;;26.81;85.25
40502;BME280;29631;49.168;9.848;2022-10-28T12:24:00;97285.53;;;27.02;84.84
40502;BME280;29631;49.168;9.848;2022-10-28T12:26:41;97283.28;;;27.09;83.67
40502;BME280;29631;49.168;9.848;2022-10-28T12:29:26;97270.47;;;27.15;83.89
40502;BME280;29631;49.168;9.848;2022-10-28T12:32:16;97246.97;;;27.10;84.47
40502;BME280;29631;49.168;9.848;2022-10-28T12:37:52;97263.69;;;27.30;84.67
40502;BME280;29631;49.168;9.848;2022-10-28T12:40:24;97268.75;;;27.37;84.15
40502;BME280;29631;49.168;9.848;2022-10-28T12:43:22;97267.38;;;27.53;83.37
40502;BME280;29631;49.168;9.848;2022-10-28T12:45:54;97267.25;;;27.63;83.80
40502;BME280;29631;49.168;9.848;2022-10-28T12:53:59;97267.59;;;27.88;82.36
40502;BME280;29631;49.168;9.848;2022-10-28T12:56:36;97260.19;;;27.93;83.94
40502;BME280;29631;49.168;9.848;2022-10-28T12:59:27;97260.50;;;28.05;84.52
40502;BME280;29631;49.168;9.848;2022-10-28T13:01:56;97251.66;;;28.13;84.59
40502;BME280;29631;49.168;9.848;2022-10-28T13:04:26;97247.09;;;28.27;84.77
40502;BME280;29631;49.168;9.848;2022-10-28T13:10:15;97251.66;;;28.54;82.42
40502;BME280;29631;49.168;9.848;2022-10-28T13:15:37;97247.88;;;29.39;80.94
40502;BME280;29631;49.168;9.848;2022-10-28T13:24:19;97242.28;;;30.82;77.92
40502;BME280;29631;49.168;9.848;2022-10-28T13:26:49;97246.97;;;31.32;77.34
40502;BME280;29631;49.168;9.848;2022-10-28T13:29:27;97247.63;;;31.54;75.67
40502;BME280;29631;49.168;9.848;2022-10-28T13:31:55;97237.13;;;31.81;76.34
40502;BME280;29631;49.168;9.848;2022-10-28T13:34:33;97247.00;;;32.03;74.37
40502;BME280;29631;49.168;9.848;2022-10-28T13:37:02;97248.81;;;31.99;74.78
40502;BME280;29631;49.168;9.848;2022-10-28T13:45:00;97244.66;;;31.93;74.55
40502;BME280;29631;49.168;9.848;2022-10-28T13:50:12;97247.00;;;32.03;75.17
40502;BME280;29631;49.168;9.848;2022-10-28T13:53:31;97251.03;;;32.14;74.53
40502;BME280;29631;49.168;9.848;2022-10-28T13:58:15;97247.47;;;32.22;75.00
40502;BME280;29631;49.168;9.848;2022-10-28T14:00:43;97224.53;;;32.14;75.05
40502;BME280;29631;49.168;9.848;2022-10-28T14:03:20;97232.16;;;32.29;75.28
40502;BME280;29631;49.168;9.848;2022-10-28T14:05:54;97238.28;;;32.26;76.08
40502;BME280;29631;49.168;9.848;2022-10-28T14:08:28;97239.44;;;32.17;76.34
40502;BME280;29631;49.168;9.848;2022-10-28T14:11:07;97249.25;;;32.18;77.12
40502;BME280;29631;49.168;9.848;2022-10-28T14:13:37;97241.72;;;32.15;77.57
40502;BME280;29631;49.168;9.848;2022-10-28T14:16:35;97252.34;;;32.08;77.17
40502;BME280;29631;49.168;9.848;2022-10-28T14:22:07;97240.13;;;31.97;77.13
40502;BME280;29631;49.168;9.848;2022-10-28T14:24:38;97253.66;;;31.85;77.27
40502;BME280;29631;49.168;9.848;2022-10-28T14:29:41;97244.13;;;31.54;77.49
40502;BME280;29631;49.168;9.848;2022-10-28T14:38:37;97254.66;;;30.96;78.66
40502;BME280;29631;49.168;9.848;2022-10-28T14:41:44;97260.38;;;30.69;78.93
40502;BME280;29631;49.168;9.848;2022-10-28T14:45:06;97264.47;;;30.50;78.94
40502;BME280;29631;49.168;9.848;2022-10-28T14:48:19;97268.84;;;30.29;79.59
40502;BME280;29631;49.168;9.848;2022-10-28T14:50:50;97268.00;;;30.12;79.24
40502;BME280;29631;49.168;9.848;2022-10-28T14:55:56;97244.38;;;29.68;80.56
40502;BME280;29631;49.168;9.848;2022-10-28T14:58:27;97216.84;;;29.40;80.12
40502;BME280;29631;49.168;9.848;2022-10-28T15:04:24;97258.94;;;29.29;80.46
40502;BME280;29631;49.168;9.848;2022-10-28T15:06:51;97268.66;;;29.21;80.46
40502;BME280;29631;49.168;9.848;2022-10-28T15:09:25;97270.28;;;29.09;80.77
40502;BME280;29631;49.168;9.848;2022-10-28T15:12:01;97271.97;;;28.96;81.02
40502;BME280;29631;49.168;9.848;2022-10-28T15:14:40;97272.34;;;28.90;81.33
40502;BME280;29631;49.168;9.848;2022-10-28T15:17:18;97271.28;;;28.77;81.58
40502;BME280;29631;49.168;9.848;2022-10-28T15:19:48;97271.16;;;28.69;81.80
40502;BME280;29631;49.168;9.848;2022-10-28T15:24:52;97263.44;;;28.49;81.69
40502;BME280;29631;49.168;9.848;2022-10-28T15:27:19;97257.53;;;28.47;81.58
40502;BME280;29631;49.168;9.848;2022-10-28T15:29:46;97258.13;;;28.31;81.82
40502;BME280;29631;49.168;9.848;2022-10-28T15:34:46;97243.63;;;28.08;81.70
40502;BME280;29631;49.168;9.848;2022-10-28T15:37:35;97255.06;;;28.05;82.15
40502;BME280;29631;49.168;9.848;2022-10-28T15:40:21;97252.06;;;27.93;81.95
40502;BME280;29631;49.168;9.848;2022-10-28T15:43:03;97240.59;;;27.83;81.93
40502;BME280;29631;49.168;9.848;2022-10-28T15:45:32;97247.22;;;27.77;82.17
40502;BME280;29631;49.168;9.848;2022-10-28T15:48:01;97244.38;;;27.69;81.69
40502;BME280;29631;49.168;9.848;2022-10-28T15:50:33;97235.91;;;27.57;81.84
40502;BME280;29631;49.168;9.848;2022-10-28T15:55:38;97250.53;;;27.56;81.81
40502;BME280;29631;49.168;9.848;2022-10-28T16:01:25;97230.41;;;27.30;81.66
40502;BME280;29631;49.168;9.848;2022-10-28T16:03:51;97238.00;;;27.28;81.71
40502;BME280;29631;49.168;9.848;2022-10-28T16:06:27;97250.25;;;27.25;81.10
40502;BME280;29631;49.168;9.848;2022-10-28T16:09:03;97255.66;;;27.25;81.23
40502;BME280;29631;49.168;9.848;2022-10-28T16:11:30;97252.81;;;27.17;81.27
40502;BME280;29631;49.168;9.848;2022-10-28T16:14:02;97229.28;;;26.99;81.68
40502;BME280;29631;49.168;9.848;2022-10-28T16:16:30;97201.66;;;26.79;81.02
40502;BME280;29631;49.168;9.848;2022-10-28T16:19:06;97251.94;;;27.03;81.19